createdAt,value
2022-08-04T00:02:57.696Z,21.09
2022-08-04T00:08:08.895Z,20.90
2022-08-04T00:13:13.503Z,20.90
2022-08-04T00:18:18.609Z,20.82
2022-08-04T00:23:24.786Z,20.81
2022-08-04T00:28:29.170Z,20.76
2022-08-04T00:33:33.382Z,20.59
2022-08-04T00:38:38.686Z,20.64
2022-08-04T00:43:54.277Z,20.65
2022-08-04T00:49:30.345Z,20.51
2022-08-04T00:54:43.073Z,20.29
2022-08-04T00:59:58.626Z,20.12
2022-08-04T01:05:06.251Z,20.17
2022-08-04T01:10:20.851Z,20.16
2022-08-04T01:15:59.971Z,19.92
2022-08-04T01:21:18.421Z,19.93
2022-08-04T01:26:57.457Z,19.84
2022-08-04T01:32:10.427Z,19.90
2022-08-04T01:37:26.228Z,19.76
2022-08-04T01:42:32.662Z,19.66
2022-08-04T01:47:39.047Z,19.63
2022-08-04T01:52:47.718Z,19.51
2022-08-04T01:57:54.633Z,19.59
2022-08-04T02:02:59.326Z,19.39
2022-08-04T02:08:16.288Z,19.25
2022-08-04T02:13:28.068Z,19.27
2022-08-04T02:18:45.307Z,19.32
2022-08-04T02:23:55.102Z,19.25
2022-08-04T02:29:04.932Z,19.22
2022-08-04T02:34:14.939Z,19.16
2022-08-04T02:39:21.640Z,19.18
2022-08-04T02:44:24.972Z,19.14
2022-08-04T02:49:33.568Z,19.06
2022-08-04T02:54:41.493Z,18.95
2022-08-04T03:00:01.728Z,18.91
2022-08-04T03:05:17.263Z,18.92
2022-08-04T03:10:38.756Z,18.83
2022-08-04T03:16:05.044Z,18.78
2022-08-04T03:21:41.683Z,18.74
2022-08-04T03:27:01.946Z,18.70
2022-08-04T03:32:39.330Z,18.60
2022-08-04T03:38:17.786Z,18.56
2022-08-04T03:43:57.581Z,18.59
2022-08-04T03:49:44.145Z,18.62
2022-08-04T03:55:31.886Z,18.57
2022-08-04T04:00:46.683Z,18.60
2022-08-04T04:06:31.658Z,18.65
2022-08-04T04:12:00.417Z,18.69
2022-08-04T04:17:21.754Z,18.76
2022-08-04T04:22:45.781Z,18.72
2022-08-04T04:28:44.184Z,19.47
2022-08-04T04:33:57.103Z,20.81
2022-08-04T04:39:13.727Z,22.00
2022-08-04T04:44:52.106Z,23.24
2022-08-04T04:50:03.313Z,23.66
2022-08-04T04:55:19.534Z,24.27
2022-08-04T05:00:26.225Z,23.85
2022-08-04T05:05:38.502Z,24.24
2022-08-04T05:10:58.047Z,24.27
2022-08-04T05:16:08.772Z,24.55
2022-08-04T05:21:24.447Z,24.37
2022-08-04T05:26:33.741Z,23.93
2022-08-04T05:31:42.342Z,24.21
2022-08-04T05:36:49.079Z,24.43
2022-08-04T05:41:55.612Z,24.39
2022-08-04T05:47:04.853Z,24.47
2022-08-04T05:52:09.004Z,24.85
2022-08-04T05:57:13.205Z,25.95
2022-08-04T06:02:20.229Z,26.43
2022-08-04T06:07:23.454Z,26.83
2022-08-04T06:12:33.753Z,27.49
2022-08-04T06:18:33.429Z,27.11
2022-08-04T06:23:12.604Z,27.49
2022-08-04T06:28:17.756Z,27.36
2022-08-04T06:33:33.485Z,27.87
2022-08-04T06:38:58.790Z,28.40
2022-08-04T06:44:06.096Z,28.72
2022-08-04T06:49:11.635Z,29.18
2022-08-04T06:54:14.797Z,29.50
2022-08-04T06:59:18.683Z,29.54
2022-08-04T07:04:23.102Z,29.67
2022-08-04T07:09:26.206Z,29.96
2022-08-04T07:14:29.962Z,30.24
2022-08-04T07:19:34.816Z,31.35
2022-08-04T07:24:41.116Z,31.57
2022-08-04T07:29:46.069Z,32.00
2022-08-04T07:34:51.509Z,32.55
2022-08-04T07:39:55.856Z,32.55
2022-08-04T07:44:59.572Z,32.59
2022-08-04T07:50:04.148Z,32.26
2022-08-04T07:55:08.440Z,32.07
2022-08-04T08:00:14.860Z,32.20
2022-08-04T08:05:21.382Z,32.53
2022-08-04T08:10:24.794Z,32.94
2022-08-04T08:15:27.834Z,33.68
2022-08-04T08:20:33.731Z,32.82
2022-08-04T08:25:38.377Z,32.50
2022-08-04T08:30:41.902Z,32.08
2022-08-04T08:35:55.723Z,33.41
2022-08-04T08:41:24.885Z,33.90
2022-08-04T08:46:49.670Z,33.63
2022-08-04T08:52:08.801Z,32.01
2022-08-04T08:57:26.925Z,32.97
2022-08-04T09:03:04.066Z,33.85
2022-08-04T09:08:24.243Z,34.27
2022-08-04T09:13:33.890Z,33.17
2022-08-04T09:18:43.253Z,33.41
2022-08-04T09:23:53.265Z,33.86
2022-08-04T09:29:08.655Z,34.66
2022-08-04T09:34:18.352Z,34.22
2022-08-04T09:39:30.155Z,34.53
2022-08-04T09:44:54.009Z,34.79
2022-08-04T09:50:10.397Z,33.76
2022-08-04T09:55:25.601Z,34.59
2022-08-04T10:00:41.356Z,34.62
2022-08-04T10:06:08.216Z,34.56
2022-08-04T10:11:17.670Z,34.18
2022-08-04T10:16:45.305Z,33.56
2022-08-04T10:22:28.376Z,34.71
2022-08-04T10:27:37.816Z,34.12
2022-08-04T10:32:46.751Z,34.78
2022-08-04T10:38:02.089Z,35.64
2022-08-04T10:43:21.988Z,36.42
2022-08-04T10:48:35.290Z,36.20
2022-08-04T10:53:40.071Z,36.15
2022-08-04T10:58:50.775Z,36.62
2022-08-04T11:03:59.938Z,35.58
2022-08-04T11:09:05.237Z,35.57
2022-08-04T11:14:24.290Z,34.77
2022-08-04T11:19:42.632Z,36.10
2022-08-04T11:24:55.126Z,36.91
2022-08-04T11:30:04.536Z,36.96
2022-08-04T11:35:13.459Z,35.59
2022-08-04T11:40:24.083Z,36.75
2022-08-04T11:45:35.222Z,36.65
2022-08-04T11:50:41.651Z,36.97
2022-08-04T11:56:08.301Z,36.84
2022-08-04T12:01:21.580Z,37.50
2022-08-04T12:06:31.792Z,36.03
2022-08-04T12:11:48.252Z,36.97
2022-08-04T12:17:01.108Z,37.72
2022-08-04T12:22:09.907Z,35.84
2022-08-04T12:27:18.172Z,36.63
2022-08-04T12:32:27.281Z,37.44
2022-08-04T12:37:43.268Z,37.59
2022-08-04T12:43:00.063Z,37.13
2022-08-04T12:48:07.437Z,37.57
2022-08-04T12:53:19.361Z,37.76
2022-08-04T12:58:43.293Z,38.32
2022-08-04T13:03:53.709Z,37.00
2022-08-04T13:09:03.451Z,37.66
2022-08-04T13:14:25.965Z,37.01
2022-08-04T13:19:41.187Z,36.80
2022-08-04T13:24:56.985Z,36.64
2022-08-04T13:30:14.739Z,36.34
2022-08-04T13:35:56.001Z,36.42
2022-08-04T13:40:54.141Z,35.76
2022-08-04T13:46:01.842Z,35.65
2022-08-04T13:51:09.096Z,36.37
2022-08-04T13:56:17.300Z,35.86
2022-08-04T14:01:35.607Z,35.42
2022-08-04T14:06:48.997Z,35.46
2022-08-04T14:12:06.305Z,35.67
2022-08-04T14:17:20.135Z,35.47
2022-08-04T14:22:36.723Z,35.32
2022-08-04T14:27:45.315Z,35.25
2022-08-04T14:32:57.889Z,35.19
2022-08-04T14:38:04.208Z,35.43
2022-08-04T14:43:09.576Z,35.85
2022-08-04T14:48:14.116Z,34.48
2022-08-04T14:53:20.379Z,35.01
2022-08-04T14:58:34.551Z,34.83
2022-08-04T15:03:49.869Z,34.63
2022-08-04T15:08:59.092Z,34.55
2022-08-04T15:14:03.135Z,34.34
2022-08-04T15:19:08.377Z,34.68
2022-08-04T15:24:13.328Z,35.31
2022-08-04T15:29:26.563Z,34.29
2022-08-04T15:34:29.670Z,34.58
2022-08-04T15:39:39.660Z,34.79
2022-08-04T15:45:05.794Z,35.22
2022-08-04T15:50:10.769Z,34.69
2022-08-04T15:55:35.952Z,34.60
2022-08-04T16:01:17.676Z,34.93
2022-08-04T16:06:44.769Z,35.01
2022-08-04T16:11:49.198Z,34.99
2022-08-04T16:16:52.263Z,35.23
2022-08-04T16:21:56.763Z,35.09
2022-08-04T16:27:02.154Z,34.88
2022-08-04T16:32:25.375Z,34.91
2022-08-04T16:37:34.878Z,34.92
2022-08-04T16:42:39.685Z,34.78
2022-08-04T16:48:02.388Z,34.74
2022-08-04T16:53:14.680Z,34.69
2022-08-04T16:58:37.561Z,34.62
2022-08-04T17:03:55.606Z,34.21
2022-08-04T17:09:06.462Z,34.09
2022-08-04T17:14:11.750Z,33.89
2022-08-04T17:19:23.840Z,33.68
2022-08-04T17:24:29.835Z,33.53
2022-08-04T17:35:01.584Z,33.29
2022-08-04T17:40:12.905Z,33.12
2022-08-04T17:50:43.771Z,32.51
2022-08-04T17:55:49.439Z,32.48
2022-08-04T18:01:24.236Z,32.16
2022-08-04T18:06:27.455Z,31.91
2022-08-04T18:11:41.935Z,31.86
2022-08-04T18:16:47.066Z,31.45
2022-08-04T18:21:59.659Z,31.34
2022-08-04T18:27:06.667Z,30.86
2022-08-04T18:32:11.648Z,30.86
2022-08-04T18:38:03.831Z,30.53
2022-08-04T18:42:39.062Z,30.32
2022-08-04T18:47:58.251Z,30.38
2022-08-04T18:53:01.862Z,30.15
2022-08-04T18:58:11.897Z,30.14
2022-08-04T19:03:23.068Z,30.00
2022-08-04T19:08:33.531Z,29.80
2022-08-04T19:13:38.358Z,29.69
2022-08-04T19:18:42.954Z,29.27
2022-08-04T19:24:28.616Z,29.44
2022-08-04T19:29:09.203Z,29.38
2022-08-04T19:34:13.741Z,29.04
2022-08-04T19:39:18.108Z,28.93
2022-08-04T19:44:24.641Z,28.72
2022-08-04T19:50:04.909Z,28.69
2022-08-04T19:54:56.917Z,28.33
2022-08-04T20:00:00.046Z,28.18
2022-08-04T20:05:08.774Z,27.90
2022-08-04T20:10:13.020Z,27.74
2022-08-04T20:15:16.761Z,27.57
2022-08-04T20:20:21.174Z,27.45
2022-08-04T20:25:37.419Z,27.21
2022-08-04T20:30:42.125Z,27.15
2022-08-04T20:36:05.726Z,27.12
2022-08-04T20:41:09.473Z,26.95
2022-08-04T20:46:18.004Z,26.81
2022-08-04T20:51:31.640Z,26.56
2022-08-04T20:56:36.403Z,26.42
2022-08-04T21:01:39.495Z,26.36
2022-08-04T21:06:50.126Z,26.34
2022-08-04T21:11:53.301Z,26.23
2022-08-04T21:16:57.598Z,26.07
2022-08-04T21:22:04.214Z,25.91
2022-08-04T21:27:09.662Z,25.86
2022-08-04T21:32:12.927Z,25.66
2022-08-04T21:37:18.419Z,25.54
2022-08-04T21:42:29.704Z,25.62
2022-08-04T21:47:45.822Z,25.47
2022-08-04T21:52:53.659Z,25.22
2022-08-04T21:57:58.732Z,25.22
2022-08-04T22:03:03.279Z,25.09
2022-08-04T22:08:07.786Z,25.03
2022-08-04T22:13:23.060Z,24.87
2022-08-04T22:18:46.024Z,24.79
2022-08-04T22:23:51.553Z,24.49
2022-08-04T22:28:55.184Z,24.57
2022-08-04T22:33:58.604Z,24.33
2022-08-04T22:39:07.518Z,24.29
2022-08-04T22:44:15.347Z,24.29
2022-08-04T22:49:19.184Z,24.41
2022-08-04T22:54:29.906Z,24.13
2022-08-04T22:59:34.882Z,24.13
2022-08-04T23:04:37.901Z,23.93
2022-08-04T23:09:50.842Z,24.01
2022-08-04T23:14:54.941Z,23.84
2022-08-04T23:19:59.958Z,23.85
2022-08-04T23:25:04.989Z,23.55
2022-08-04T23:30:09.083Z,23.51
2022-08-04T23:35:12.222Z,23.39
2022-08-04T23:40:33.435Z,23.25
2022-08-04T23:46:06.820Z,23.33
2022-08-04T23:51:14.568Z,22.97
2022-08-04T23:56:20.056Z,23.02
